Time;durP1;ratioP1;P1;durP2;ratioP2;P2;SDS_P1;SDS_P2;PMS_P1;PMS_P2;Temp;Humidity;BMP_temperature;BMP_pressure;BME280_temperature;BME280_humidity;BME280_pressure;Samples;Min_cycle;Max_cycle;Signal;HPM_P1;HPM_P2
2023/06/18 00:02:24;;;;;;;15.63;14.43;;;14.90;78.00;;;;;;6278609;28;20757;-82
2023/06/18 00:05:27;;;;;;;15.43;14.27;;;14.90;78.10;;;;;;6269373;28;20239;-83
2023/06/18 00:08:31;;;;;;;13.90;12.90;;;14.90;78.10;;;;;;6267992;28;20226;-81
2023/06/18 00:11:34;;;;;;;16.37;15.07;;;14.90;78.10;;;;;;6267368;28;20765;-82
2023/06/18 00:14:38;;;;;;;15.33;14.23;;;14.80;78.20;;;;;;6260419;28;20230;-83
2023/06/18 00:17:42;;;;;;;16.50;15.20;;;14.80;78.20;;;;;;6267198;28;20648;-83
2023/06/18 00:20:45;;;;;;;15.33;14.13;;;14.80;78.30;;;;;;6307416;28;20245;-82
2023/06/18 00:23:48;;;;;;;14.23;13.13;;;14.80;78.30;;;;;;6260745;28;20729;-82
2023/06/18 00:26:52;;;;;;;15.37;14.13;;;14.70;78.30;;;;;;6273530;28;20242;-83
2023/06/18 00:29:56;;;;;;;16.30;15.13;;;14.70;78.40;;;;;;6270092;28;20249;-82
2023/06/18 00:33:03;;;;;;;16.27;15.07;;;14.70;78.40;;;;;;6276148;28;20238;-84
2023/06/18 00:36:07;;;;;;;16.03;14.70;;;14.70;78.50;;;;;;6279332;28;20233;-81
2023/06/18 00:39:10;;;;;;;17.03;15.63;;;14.70;78.60;;;;;;6283523;28;20787;-83
2023/06/18 00:42:15;;;;;;;15.37;14.27;;;14.60;78.70;;;;;;6269623;28;20263;-83
2023/06/18 00:45:22;;;;;;;15.33;14.23;;;14.60;78.70;;;;;;6283994;28;20237;-82
2023/06/18 00:48:26;;;;;;;15.27;14.13;;;14.60;78.70;;;;;;6257863;28;20320;-82
2023/06/18 00:51:31;;;;;;;17.50;16.00;;;14.60;78.70;;;;;;6273332;28;20262;-82
2023/06/18 00:54:36;;;;;;;17.90;16.40;;;14.60;78.90;;;;;;6275769;28;20226;-82
2023/06/18 00:57:42;;;;;;;17.13;15.83;;;14.60;78.90;;;;;;6268510;28;20327;-83
2023/06/18 01:00:47;;;;;;;18.17;16.73;;;14.60;78.90;;;;;;6308438;28;20338;-81
2023/06/18 01:03:50;;;;;;;16.47;15.27;;;14.50;79.00;;;;;;6286343;28;20240;-83
2023/06/18 01:06:55;;;;;;;16.17;14.77;;;14.50;79.00;;;;;;6262673;28;20754;-82
2023/06/18 01:10:00;;;;;;;18.53;17.03;;;14.50;79.00;;;;;;6274788;28;20241;-83
2023/06/18 01:13:08;;;;;;;16.07;14.77;;;14.50;79.10;;;;;;6277973;28;20725;-83
2023/06/18 01:16:13;;;;;;;16.23;14.90;;;14.50;79.10;;;;;;6269253;28;20287;-81
2023/06/18 01:19:32;;;;;;;17.77;16.37;;;14.50;79.20;;;;;;6278914;28;20248;-81
2023/06/18 01:22:39;;;;;;;17.27;15.97;;;14.40;79.20;;;;;;6275283;28;20245;-83
2023/06/18 01:25:43;;;;;;;17.53;16.03;;;14.40;79.30;;;;;;6280413;28;20230;-83
2023/06/18 01:28:47;;;;;;;16.97;15.67;;;14.40;79.30;;;;;;6267738;28;20665;-81
2023/06/18 01:31:53;;;;;;;17.67;16.40;;;14.40;79.30;;;;;;6279245;28;20263;-82
2023/06/18 01:34:56;;;;;;;17.33;15.93;;;14.40;79.40;;;;;;6277703;28;20423;-84
2023/06/18 01:38:18;;;;;;;15.83;14.67;;;14.40;79.40;;;;;;6274969;28;20233;-83
2023/06/18 01:41:26;;;;;;;17.30;15.90;;;14.30;79.50;;;;;;6263624;28;20273;-82
2023/06/18 01:44:31;;;;;;;19.63;18.03;;;14.30;79.50;;;;;;6273684;28;20240;-81
2023/06/18 01:47:36;;;;;;;17.00;15.60;;;14.30;79.60;;;;;;6269322;28;20290;-81
2023/06/18 01:50:43;;;;;;;16.23;14.93;;;14.30;79.50;;;;;;6277119;28;20222;-84
2023/06/18 01:53:49;;;;;;;17.60;16.20;;;14.30;79.50;;;;;;6278375;28;20385;-83
2023/06/18 01:56:53;;;;;;;17.50;16.10;;;14.30;79.60;;;;;;6283627;28;20283;-81
2023/06/18 01:59:56;;;;;;;16.13;15.00;;;14.30;79.50;;;;;;6276249;28;20237;-82
2023/06/18 02:03:00;;;;;;;17.80;16.40;;;14.20;79.60;;;;;;6259531;28;20288;-83
2023/06/18 02:06:07;;;;;;;19.20;17.60;;;14.20;79.60;;;;;;6287766;28;20705;-81
2023/06/18 02:09:10;;;;;;;18.10;16.60;;;14.20;79.60;;;;;;6266711;28;20842;-83
2023/06/18 02:12:13;;;;;;;18.07;16.57;;;14.20;79.70;;;;;;6260071;28;20315;-82
2023/06/18 02:15:16;;;;;;;16.63;15.40;;;14.20;79.70;;;;;;6282380;28;20241;-83
2023/06/18 02:18:21;;;;;;;17.13;15.77;;;14.10;79.70;;;;;;6273339;28;20242;-84
2023/06/18 02:21:26;;;;;;;18.03;16.57;;;14.10;79.70;;;;;;6277333;28;20248;-83
2023/06/18 02:24:31;;;;;;;17.30;15.90;;;14.10;79.80;;;;;;6260160;28;20254;-84
2023/06/18 02:27:35;;;;;;;16.67;15.37;;;14.10;79.80;;;;;;6280508;28;20248;-83
2023/06/18 02:30:39;;;;;;;17.70;16.30;;;14.10;79.90;;;;;;6288270;28;20237;-82
2023/06/18 02:33:43;;;;;;;17.30;15.90;;;14.10;79.90;;;;;;6277283;28;20230;-82
2023/06/18 02:36:48;;;;;;;17.93;16.43;;;14.10;79.90;;;;;;6263779;28;20412;-83
2023/06/18 02:39:51;;;;;;;18.70;17.20;;;14.10;79.90;;;;;;6280359;28;20237;-83
2023/06/18 02:42:56;;;;;;;17.67;16.17;;;14.10;80.00;;;;;;6263554;28;20447;-82
2023/06/18 02:46:00;;;;;;;17.80;16.30;;;14.10;80.00;;;;;;6264699;28;20600;-84
2023/06/18 02:49:04;;;;;;;16.90;15.57;;;14.10;80.00;;;;;;6283241;28;20706;-84
2023/06/18 02:52:07;;;;;;;17.63;16.13;;;14.10;80.00;;;;;;6270146;28;20243;-83
2023/06/18 02:55:12;;;;;;;17.30;16.00;;;14.20;80.10;;;;;;6264640;28;20225;-82
2023/06/18 02:58:18;;;;;;;18.57;17.07;;;14.10;80.10;;;;;;6268975;28;20234;-82
2023/06/18 03:01:23;;;;;;;18.17;16.67;;;14.10;80.00;;;;;;6272724;28;20233;-83
2023/06/18 03:04:28;;;;;;;21.83;19.70;;;14.10;80.10;;;;;;6291029;28;20237;-85
2023/06/18 03:07:32;;;;;;;19.57;17.97;;;14.10;80.10;;;;;;6290539;28;20229;-82
2023/06/18 03:10:35;;;;;;;18.43;16.80;;;14.10;80.20;;;;;;6268352;28;20230;-82
2023/06/18 03:13:38;;;;;;;19.13;17.53;;;14.10;80.20;;;;;;6274947;28;20247;-82
2023/06/18 03:16:41;;;;;;;17.77;16.33;;;14.10;80.20;;;;;;6269568;28;20933;-81
2023/06/18 03:19:48;;;;;;;17.60;16.20;;;14.10;80.20;;;;;;6260475;28;20235;-81
2023/06/18 03:22:52;;;;;;;16.13;14.83;;;14.20;80.20;;;;;;6251265;28;20242;-82
2023/06/18 03:25:55;;;;;;;16.23;14.93;;;14.20;80.20;;;;;;6283792;28;20237;-83
2023/06/18 03:28:58;;;;;;;18.43;16.93;;;14.20;80.20;;;;;;6272991;28;20333;-83
2023/06/18 03:32:01;;;;;;;16.80;15.37;;;14.20;80.20;;;;;;6258605;28;20253;-85
2023/06/18 03:35:06;;;;;;;15.27;14.17;;;14.20;80.20;;;;;;6271602;28;20234;-83
2023/06/18 03:38:10;;;;;;;16.90;15.63;;;14.20;80.20;;;;;;6270067;28;20242;-86
2023/06/18 03:41:14;;;;;;;15.43;14.33;;;14.20;80.20;;;;;;6259413;28;20246;-83
2023/06/18 03:44:18;;;;;;;14.97;13.97;;;14.30;80.10;;;;;;6260910;28;20744;-84
2023/06/18 03:47:21;;;;;;;16.37;15.10;;;14.30;80.10;;;;;;6265591;28;20233;-84
2023/06/18 03:50:26;;;;;;;16.63;15.43;;;14.30;80.10;;;;;;6269702;28;20239;-85
2023/06/18 03:53:36;;;;;;;16.57;15.27;;;14.30;80.10;;;;;;6274022;28;20241;-84
2023/06/18 03:56:39;;;;;;;18.37;16.87;;;14.40;80.00;;;;;;6260492;28;20225;-85
2023/06/18 03:59:43;;;;;;;19.63;18.10;;;14.40;80.10;;;;;;6275902;28;20743;-84
2023/06/18 04:02:46;;;;;;;18.63;17.23;;;14.50;80.10;;;;;;6268246;28;25396;-83
2023/06/18 04:05:51;;;;;;;20.67;18.97;;;14.60;80.00;;;;;;6266225;28;20241;-85
2023/06/18 04:08:54;;;;;;;19.20;17.63;;;14.60;80.00;;;;;;6266057;28;20648;-84
2023/06/18 04:11:57;;;;;;;21.30;19.50;;;14.70;80.00;;;;;;6290846;28;20320;-85
2023/06/18 04:15:00;;;;;;;18.00;16.70;;;14.70;79.90;;;;;;6283183;28;20244;-83
2023/06/18 04:18:04;;;;;;;16.80;15.50;;;14.80;79.90;;;;;;6284840;28;20747;-85
2023/06/18 04:21:09;;;;;;;17.60;16.30;;;14.90;79.90;;;;;;6291932;28;20873;-85
2023/06/18 04:24:12;;;;;;;19.27;17.77;;;14.90;79.70;;;;;;6265563;28;20240;-84
2023/06/18 04:27:15;;;;;;;17.53;16.23;;;15.00;79.70;;;;;;6288346;28;20224;-85
2023/06/18 04:30:19;;;;;;;16.70;15.40;;;15.00;79.60;;;;;;6284044;28;20248;-83
2023/06/18 04:33:23;;;;;;;15.73;14.50;;;15.20;79.60;;;;;;6270445;28;20246;-83
2023/06/18 04:36:28;;;;;;;17.83;16.33;;;15.20;79.50;;;;;;6276530;28;20268;-85
2023/06/18 04:39:31;;;;;;;17.50;16.10;;;15.30;79.50;;;;;;6275057;28;20244;-85
2023/06/18 04:42:34;;;;;;;18.10;16.70;;;15.40;79.40;;;;;;6263813;28;20241;-85
2023/06/18 04:45:37;;;;;;;15.60;14.40;;;15.50;79.30;;;;;;6270608;28;20233;-85
2023/06/18 04:48:40;;;;;;;15.40;14.20;;;15.60;79.30;;;;;;6274658;28;20260;-85
2023/06/18 04:51:45;;;;;;;15.90;14.70;;;15.80;79.10;;;;;;6266544;28;20233;-85
2023/06/18 04:54:48;;;;;;;18.57;17.07;;;15.90;79.00;;;;;;6275159;28;20740;-84
2023/06/18 04:57:51;;;;;;;17.10;15.70;;;16.10;79.00;;;;;;6269868;28;20737;-85
2023/06/18 05:00:55;;;;;;;19.17;17.57;;;16.40;78.90;;;;;;6271947;28;20248;-85
2023/06/18 05:03:58;;;;;;;21.60;19.53;;;16.60;78.60;;;;;;6272792;28;20881;-83
2023/06/18 05:07:03;;;;;;;21.73;19.93;;;17.00;78.00;;;;;;6270094;28;20483;-83
2023/06/18 05:10:08;;;;;;;22.00;20.00;;;17.30;77.40;;;;;;6258908;28;20242;-84
2023/06/18 05:13:12;;;;;;;26.37;24.00;;;17.60;76.50;;;;;;6271210;28;20938;-85
2023/06/18 05:16:15;;;;;;;26.93;24.50;;;18.00;75.50;;;;;;6282867;28;20849;-85
2023/06/18 05:19:19;;;;;;;24.40;22.20;;;18.20;71.80;;;;;;6265994;28;20241;-85
2023/06/18 05:22:24;;;;;;;25.47;23.17;;;18.50;72.40;;;;;;6269136;28;20238;-84
2023/06/18 05:25:27;;;;;;;24.53;22.30;;;18.90;71.50;;;;;;6282690;28;20245;-83
2023/06/18 05:28:30;;;;;;;17.20;15.90;;;19.20;69.80;;;;;;6278945;28;20315;-85
2023/06/18 05:31:33;;;;;;;17.40;15.90;;;19.40;67.90;;;;;;6275167;28;20241;-85
2023/06/18 05:34:37;;;;;;;16.70;15.30;;;19.60;67.20;;;;;;6269003;28;20364;-85
2023/06/18 05:37:41;;;;;;;12.33;11.40;;;20.00;66.70;;;;;;6274191;28;20752;-85
2023/06/18 05:40:45;;;;;;;10.97;10.13;;;20.30;65.30;;;;;;6275810;28;20605;-84
2023/06/18 05:43:48;;;;;;;10.90;10.03;;;20.60;64.10;;;;;;6276752;28;20312;-84
2023/06/18 05:46:51;;;;;;;10.60;9.90;;;20.90;61.70;;;;;;6290458;28;20276;-83
2023/06/18 05:49:55;;;;;;;9.93;9.23;;;20.90;60.90;;;;;;6284575;28;20237;-85
2023/06/18 05:52:59;;;;;;;8.70;8.10;;;20.90;60.20;;;;;;6283679;28;20311;-86
2023/06/18 05:56:02;;;;;;;10.23;9.47;;;20.90;59.70;;;;;;6286911;28;20229;-86
2023/06/18 05:59:06;;;;;;;9.13;8.50;;;21.00;60.20;;;;;;6272221;28;20241;-86
2023/06/18 06:02:10;;;;;;;8.77;8.23;;;21.30;60.30;;;;;;6270719;28;20245;-84
2023/06/18 06:05:13;;;;;;;8.27;7.77;;;21.60;59.50;;;;;;6271911;28;20234;-86
2023/06/18 06:08:17;;;;;;;9.00;8.47;;;22.00;59.20;;;;;;6269085;28;20305;-85
2023/06/18 06:11:21;;;;;;;8.10;7.60;;;22.20;58.40;;;;;;6264241;28;20241;-84
2023/06/18 06:14:24;;;;;;;7.93;7.33;;;22.10;57.60;;;;;;6264277;28;20252;-83
2023/06/18 06:17:27;;;;;;;6.93;6.60;;;22.50;57.90;;;;;;6274943;28;20230;-85
2023/06/18 06:20:32;;;;;;;8.10;7.60;;;22.80;57.90;;;;;;6276139;28;20237;-84
2023/06/18 06:23:37;;;;;;;8.43;7.70;;;23.10;56.80;;;;;;6273826;28;20248;-86
2023/06/18 06:26:40;;;;;;;7.87;7.47;;;23.30;56.20;;;;;;6277704;28;20230;-84
2023/06/18 06:29:43;;;;;;;7.20;6.90;;;23.50;56.30;;;;;;6271296;28;20697;-84
2023/06/18 06:32:47;;;;;;;7.23;6.80;;;23.90;56.10;;;;;;6268359;28;20903;-84
2023/06/18 06:35:51;;;;;;;7.00;6.63;;;24.00;55.10;;;;;;6273193;28;20241;-85
2023/06/18 06:38:56;;;;;;;5.80;5.50;;;23.90;54.00;;;;;;6266948;28;20250;-85
2023/06/18 06:41:59;;;;;;;7.10;6.60;;;23.90;53.10;;;;;;6273206;28;20238;-86
2023/06/18 06:45:02;;;;;;;7.63;7.23;;;24.00;53.70;;;;;;6274021;28;20259;-86
2023/06/18 06:48:06;;;;;;;7.20;6.80;;;23.90;55.10;;;;;;6280051;28;20741;-85
2023/06/18 06:51:09;;;;;;;8.17;7.47;;;23.90;54.70;;;;;;6266163;28;20244;-85
2023/06/18 06:54:14;;;;;;;8.30;7.80;;;24.10;56.10;;;;;;6280814;28;20249;-84
2023/06/18 06:57:21;;;;;;;8.40;7.90;;;24.20;54.30;;;;;;6268595;28;20323;-83
2023/06/18 07:00:25;;;;;;;9.13;8.57;;;24.30;54.10;;;;;;6270619;28;20328;-87
2023/06/18 07:03:31;;;;;;;8.30;7.90;;;24.20;53.70;;;;;;6266708;28;20233;-86
2023/06/18 07:06:38;;;;;;;8.60;8.20;;;24.40;54.60;;;;;;6291509;28;20255;-84
2023/06/18 07:09:43;;;;;;;10.30;9.60;;;24.50;53.60;;;;;;6262875;28;20237;-85
2023/06/18 07:12:46;;;;;;;9.50;8.63;;;24.40;54.20;;;;;;6269622;28;20230;-85
2023/06/18 07:15:49;;;;;;;10.80;10.17;;;24.20;54.60;;;;;;6272950;28;20225;-86
2023/06/18 07:18:53;;;;;;;9.53;8.60;;;24.40;54.20;;;;;;6274872;28;20232;-86
2023/06/18 07:21:57;;;;;;;9.73;9.13;;;24.60;54.80;;;;;;6271428;28;20237;-84
2023/06/18 07:25:03;;;;;;;10.97;10.27;;;24.70;54.40;;;;;;6276153;28;20296;-88
2023/06/18 07:28:06;;;;;;;9.33;8.80;;;24.20;54.80;;;;;;6276754;28;20229;-85
2023/06/18 07:31:09;;;;;;;11.53;10.83;;;24.10;55.40;;;;;;6275076;28;21733;-82
2023/06/18 07:34:13;;;;;;;10.13;9.43;;;23.90;54.50;;;;;;6264990;28;20327;-83
2023/06/18 07:37:19;;;;;;;9.60;9.07;;;23.90;54.40;;;;;;6266499;28;20229;-84
2023/06/18 07:40:25;;;;;;;8.43;8.03;;;23.80;54.60;;;;;;6263756;28;20242;-87
2023/06/18 07:43:29;;;;;;;9.27;8.67;;;23.90;54.00;;;;;;6273537;28;20237;-85
2023/06/18 07:46:33;;;;;;;9.40;8.80;;;24.00;54.30;;;;;;6268995;28;20242;-85
2023/06/18 07:49:37;;;;;;;9.70;9.13;;;23.80;54.70;;;;;;6264199;28;20237;-85
2023/06/18 07:52:40;;;;;;;9.00;8.50;;;23.80;54.80;;;;;;6267124;28;20237;-83
2023/06/18 07:55:45;;;;;;;8.30;7.90;;;23.80;55.10;;;;;;6256943;28;20238;-84
2023/06/18 07:58:48;;;;;;;7.77;7.37;;;23.80;54.60;;;;;;6279755;28;20226;-84
2023/06/18 08:01:52;;;;;;;8.97;8.57;;;23.90;54.80;;;;;;6274711;28;20236;-84
2023/06/18 08:04:56;;;;;;;8.77;8.07;;;23.60;55.10;;;;;;6267650;28;20226;-84
2023/06/18 08:07:59;;;;;;;7.97;7.57;;;23.60;54.60;;;;;;6262147;28;20741;-82
2023/06/18 08:11:04;;;;;;;8.23;7.83;;;23.60;55.00;;;;;;6270896;28;20259;-85
2023/06/18 08:14:07;;;;;;;8.53;8.03;;;23.60;55.50;;;;;;6272661;28;20323;-84
2023/06/18 08:17:15;;;;;;;7.10;6.70;;;23.20;54.10;;;;;;6261857;28;20239;-85
2023/06/18 08:20:19;;;;;;;6.50;6.17;;;23.20;54.40;;;;;;6272202;28;20793;-85
2023/06/18 08:23:22;;;;;;;7.47;7.17;;;23.30;54.30;;;;;;6261487;28;20246;-83
2023/06/18 08:26:27;;;;;;;6.37;6.17;;;23.60;53.30;;;;;;6263218;28;20266;-83
2023/06/18 08:29:30;;;;;;;7.67;6.93;;;23.60;54.20;;;;;;6265103;28;20233;-85
2023/06/18 08:32:34;;;;;;;8.30;7.83;;;23.80;54.20;;;;;;6269746;28;20246;-82
2023/06/18 08:35:38;;;;;;;7.67;7.37;;;24.00;53.80;;;;;;6256875;28;20230;-84
2023/06/18 08:38:41;;;;;;;7.83;7.33;;;23.90;54.00;;;;;;6275334;28;20281;-82
2023/06/18 08:41:46;;;;;;;6.63;6.33;;;23.80;52.80;;;;;;6254295;28;20295;-81
2023/06/18 08:44:50;;;;;;;7.37;6.90;;;23.90;53.40;;;;;;6271747;28;20924;-82
2023/06/18 08:47:59;;;;;;;8.20;7.70;;;24.10;53.00;;;;;;6294322;28;20228;-86
2023/06/18 08:51:12;;;;;;;6.63;6.37;;;24.50;53.30;;;;;;6260014;28;20245;-84
2023/06/18 08:54:20;;;;;;;7.87;7.47;;;24.90;53.20;;;;;;6260074;28;20226;-83
2023/06/18 08:57:32;;;;;;;8.27;7.87;;;25.00;52.40;;;;;;6253687;28;20318;-79
2023/06/18 09:00:48;;;;;;;8.03;7.57;;;24.80;51.50;;;;;;6276145;28;20324;-81
2023/06/18 09:04:00;;;;;;;7.57;7.07;;;24.60;52.70;;;;;;6274073;28;20231;-80
2023/06/18 09:07:08;;;;;;;7.23;6.93;;;24.80;51.80;;;;;;6280190;28;20304;-81
2023/06/18 09:10:18;;;;;;;6.57;6.37;;;25.30;51.30;;;;;;6266653;28;20881;-83
2023/06/18 09:13:23;;;;;;;6.27;5.97;;;25.60;51.00;;;;;;6262731;28;20909;-81
2023/06/18 09:16:27;;;;;;;6.50;6.30;;;26.10;50.80;;;;;;6267689;28;20312;-82
2023/06/18 09:19:31;;;;;;;6.43;6.13;;;26.40;48.40;;;;;;6274393;28;20253;-81
2023/06/18 09:22:44;;;;;;;6.90;6.60;;;26.50;48.10;;;;;;6271398;28;20261;-84
2023/06/18 09:25:53;;;;;;;7.10;6.77;;;26.10;48.40;;;;;;6268037;28;20329;-82
2023/06/18 09:28:57;;;;;;;6.70;6.13;;;25.80;49.20;;;;;;6266452;28;20230;-82
2023/06/18 09:32:07;;;;;;;6.90;6.60;;;25.60;49.60;;;;;;6264155;28;20855;-82
2023/06/18 09:35:14;;;;;;;7.23;6.93;;;25.20;50.40;;;;;;6263410;28;20304;-83
2023/06/18 09:38:18;;;;;;;7.47;7.10;;;25.00;50.90;;;;;;6267797;28;20364;-83
2023/06/18 09:41:33;;;;;;;7.13;6.73;;;24.90;50.90;;;;;;6280423;28;20242;-82
2023/06/18 09:44:46;;;;;;;8.03;7.53;;;25.00;51.50;;;;;;6247920;28;20698;-79
2023/06/18 09:47:51;;;;;;;8.07;7.67;;;25.30;50.10;;;;;;6253703;28;20765;-82
2023/06/18 09:51:03;;;;;;;7.83;7.33;;;25.50;49.40;;;;;;6275223;28;20895;-81
2023/06/18 09:54:11;;;;;;;7.03;6.70;;;25.40;50.60;;;;;;6279735;28;20305;-85
2023/06/18 09:57:18;;;;;;;7.90;7.30;;;25.10;50.40;;;;;;6270679;28;20230;-82
2023/06/18 10:00:26;;;;;;;8.40;7.83;;;25.00;50.70;;;;;;6266389;28;20229;-83
2023/06/18 10:03:51;;;;;;;7.33;7.03;;;24.60;51.00;;;;;;6270646;28;20242;-82
2023/06/18 10:06:58;;;;;;;8.53;8.13;;;24.50;51.30;;;;;;6266522;28;20228;-85
2023/06/18 10:10:06;;;;;;;7.53;7.17;;;24.50;51.60;;;;;;6270060;28;20242;-84
2023/06/18 10:13:13;;;;;;;7.90;7.20;;;24.80;51.60;;;;;;6282631;28;20237;-86
2023/06/18 10:16:18;;;;;;;8.17;7.73;;;25.10;49.80;;;;;;6263565;28;20238;-82
2023/06/18 10:19:26;;;;;;;7.50;7.10;;;25.30;49.70;;;;;;6268051;28;20238;-83
2023/06/18 10:22:46;;;;;;;7.20;6.87;;;25.50;48.80;;;;;;6264085;28;20658;-82
2023/06/18 10:26:15;;;;;;;7.00;6.67;;;25.50;49.10;;;;;;6264278;28;20230;-83
2023/06/18 10:29:33;;;;;;;6.70;6.50;;;25.50;48.50;;;;;;6275724;28;20233;-84
2023/06/18 10:32:45;;;;;;;6.33;6.03;;;25.50;48.00;;;;;;6268039;28;20238;-84
2023/06/18 10:35:51;;;;;;;6.50;6.20;;;25.30;48.30;;;;;;6242353;28;20870;-83
2023/06/18 10:38:54;;;;;;;7.97;7.27;;;25.10;49.20;;;;;;6282007;28;20655;-84
2023/06/18 10:42:11;;;;;;;7.47;6.97;;;25.20;49.60;;;;;;6289822;28;20846;-83
2023/06/18 10:45:21;;;;;;;7.07;6.67;;;25.30;49.50;;;;;;6269248;28;20284;-83
2023/06/18 10:48:34;;;;;;;6.80;6.23;;;25.50;49.50;;;;;;6254919;28;20321;-84
2023/06/18 10:55:30;;;;;;;7.20;6.77;;;25.60;50.00;;;;;;6276168;28;20233;-84
2023/06/18 10:58:37;;;;;;;6.77;6.47;;;25.80;48.60;;;;;;6250542;28;20634;-85
2023/06/18 11:01:43;;;;;;;7.30;6.73;;;25.60;48.70;;;;;;6269998;28;20241;-83
2023/06/18 11:04:49;;;;;;;6.03;5.63;;;25.70;49.00;;;;;;6259909;28;20238;-86
2023/06/18 11:08:00;;;;;;;5.33;5.20;;;25.80;48.80;;;;;;6266732;28;20245;-84
2023/06/18 11:11:05;;;;;;;6.60;6.20;;;26.10;47.80;;;;;;6271496;28;20380;-85
2023/06/18 11:14:20;;;;;;;6.23;5.93;;;26.10;48.00;;;;;;6267040;28;20226;-85
2023/06/18 11:17:23;;;;;;;6.00;5.80;;;26.40;47.70;;;;;;6269650;28;20242;-84
2023/06/18 11:20:30;;;;;;;5.83;5.63;;;26.40;46.90;;;;;;6267164;28;20245;-85
2023/06/18 11:23:34;;;;;;;6.37;6.07;;;26.30;47.30;;;;;;6259315;28;20233;-85
2023/06/18 11:26:38;;;;;;;5.97;5.70;;;26.00;47.90;;;;;;6269318;28;20233;-86
2023/06/18 11:29:43;;;;;;;6.67;6.47;;;26.00;47.90;;;;;;6266075;28;20596;-87
2023/06/18 11:32:46;;;;;;;6.87;6.47;;;26.00;47.80;;;;;;6263122;28;20325;-86
2023/06/18 11:35:51;;;;;;;6.07;5.90;;;25.80;48.00;;;;;;6278241;28;20388;-85
2023/06/18 11:38:58;;;;;;;6.53;6.13;;;25.60;47.80;;;;;;6272783;28;20229;-87
2023/06/18 11:42:13;;;;;;;6.30;6.00;;;25.40;47.90;;;;;;6274385;28;20404;-85
2023/06/18 11:45:19;;;;;;;6.10;5.80;;;25.30;48.20;;;;;;6265039;28;20261;-87
2023/06/18 11:48:23;;;;;;;5.43;5.23;;;25.40;48.60;;;;;;6276008;28;20306;-86
2023/06/18 11:51:30;;;;;;;6.23;6.03;;;25.70;48.40;;;;;;6266450;28;20265;-85
2023/06/18 11:54:37;;;;;;;5.50;5.40;;;26.00;46.90;;;;;;6274415;28;20271;-86
2023/06/18 11:57:41;;;;;;;5.87;5.20;;;26.00;45.90;;;;;;6273485;28;20643;-84
2023/06/18 12:00:44;;;;;;;5.60;5.33;;;26.00;45.80;;;;;;6270427;28;20241;-85
2023/06/18 12:03:48;;;;;;;5.97;5.17;;;26.20;46.20;;;;;;6269053;28;20373;-84
2023/06/18 12:06:53;;;;;;;6.00;5.70;;;26.60;45.50;;;;;;6271650;28;21105;-84
2023/06/18 12:09:57;;;;;;;5.53;5.23;;;26.70;45.80;;;;;;6271065;28;20239;-84
2023/06/18 12:13:08;;;;;;;5.23;4.93;;;26.70;46.10;;;;;;6258120;28;20891;-84
2023/06/18 12:16:21;;;;;;;6.10;5.73;;;26.70;46.70;;;;;;6269994;28;20331;-83
2023/06/18 12:19:26;;;;;;;6.50;6.20;;;26.50;46.20;;;;;;6261714;28;20248;-84
2023/06/18 12:22:30;;;;;;;6.03;5.63;;;26.50;46.60;;;;;;6291227;28;20268;-80
2023/06/18 12:25:34;;;;;;;6.40;6.17;;;26.60;46.70;;;;;;6274605;28;20246;-82
2023/06/18 12:28:41;;;;;;;5.87;5.67;;;26.60;46.70;;;;;;6284466;28;20238;-81
2023/06/18 12:31:44;;;;;;;6.40;5.83;;;26.50;46.10;;;;;;6270112;28;20269;-83
2023/06/18 12:34:48;;;;;;;5.47;5.27;;;26.40;46.10;;;;;;6274556;28;20304;-81
2023/06/18 12:37:53;;;;;;;5.73;5.40;;;26.40;45.70;;;;;;6266787;28;20233;-82
2023/06/18 12:40:58;;;;;;;5.90;5.70;;;26.70;46.70;;;;;;6267146;28;20234;-82
2023/06/18 12:44:05;;;;;;;6.47;6.07;;;27.10;47.20;;;;;;6274662;28;20953;-81
2023/06/18 12:47:16;;;;;;;5.73;5.30;;;27.50;45.80;;;;;;6280903;28;20238;-82
2023/06/18 12:50:44;;;;;;;6.20;5.87;;;27.70;45.90;;;;;;6279795;28;20234;-83
2023/06/18 12:53:51;;;;;;;5.97;5.57;;;27.80;44.10;;;;;;6266325;28;20720;-81
2023/06/18 12:56:57;;;;;;;5.90;5.70;;;27.60;45.50;;;;;;6287602;28;20230;-82
2023/06/18 13:00:00;;;;;;;5.50;5.30;;;27.80;43.70;;;;;;6281642;28;20246;-82
2023/06/18 13:03:05;;;;;;;5.37;5.17;;;27.60;44.50;;;;;;6277429;28;20253;-81
2023/06/18 13:06:08;;;;;;;6.77;6.47;;;27.50;44.40;;;;;;6264259;28;20630;-82
2023/06/18 13:09:13;;;;;;;5.60;5.30;;;27.50;45.00;;;;;;6286349;28;20677;-83
2023/06/18 13:12:19;;;;;;;6.83;6.43;;;27.80;44.80;;;;;;6271817;28;20254;-83
2023/06/18 13:15:30;;;;;;;6.23;5.83;;;28.00;45.00;;;;;;6274604;28;20233;-82
2023/06/18 13:18:33;;;;;;;6.77;6.40;;;27.90;44.90;;;;;;6278414;28;20241;-83
2023/06/18 13:21:37;;;;;;;6.50;6.00;;;27.70;44.80;;;;;;6261131;28;20279;-83
2023/06/18 13:24:43;;;;;;;6.67;6.30;;;27.50;44.90;;;;;;6269551;28;20831;-80
2023/06/18 13:27:47;;;;;;;6.33;5.83;;;27.60;44.60;;;;;;6284772;28;20266;-80
2023/06/18 13:30:51;;;;;;;6.23;5.97;;;27.60;44.40;;;;;;6272595;28;20312;-79
2023/06/18 13:33:56;;;;;;;5.77;5.57;;;27.80;43.60;;;;;;6279688;28;20236;-84
2023/06/18 13:37:00;;;;;;;6.47;6.17;;;27.80;43.40;;;;;;6271638;28;20273;-81
2023/06/18 13:40:06;;;;;;;5.83;5.63;;;27.80;43.30;;;;;;6270354;28;20633;-85
2023/06/18 13:43:11;;;;;;;6.33;6.03;;;27.80;43.10;;;;;;6268045;28;20226;-82
2023/06/18 13:46:15;;;;;;;5.87;5.53;;;27.50;43.70;;;;;;6284007;28;20762;-82
2023/06/18 13:49:21;;;;;;;5.73;5.53;;;27.70;43.30;;;;;;6274774;28;20325;-82
2023/06/18 13:52:27;;;;;;;5.73;5.53;;;27.40;43.70;;;;;;6283206;28;20322;-84
2023/06/18 13:55:33;;;;;;;5.27;5.07;;;27.80;44.10;;;;;;6266271;28;20336;-81
2023/06/18 13:58:36;;;;;;;4.93;4.73;;;28.10;42.80;;;;;;6260815;28;20308;-82
2023/06/18 14:01:39;;;;;;;6.27;5.77;;;28.50;42.30;;;;;;6262726;28;20317;-78
2023/06/18 14:04:43;;;;;;;5.27;5.17;;;28.60;42.10;;;;;;6275410;28;20321;-82
2023/06/18 14:07:50;;;;;;;5.60;5.40;;;28.50;42.30;;;;;;6283568;28;20313;-82
2023/06/18 14:10:55;;;;;;;5.13;4.93;;;28.10;43.00;;;;;;6273890;28;20245;-81
2023/06/18 14:14:04;;;;;;;5.50;5.30;;;28.10;42.80;;;;;;6266595;28;20234;-81
2023/06/18 14:17:10;;;;;;;5.83;5.63;;;27.90;43.30;;;;;;6270563;28;20240;-81
2023/06/18 14:20:17;;;;;;;6.10;5.80;;;27.50;43.70;;;;;;6279768;28;20837;-82
2023/06/18 14:23:20;;;;;;;6.60;6.30;;;27.30;44.20;;;;;;6269421;28;20302;-83
2023/06/18 14:26:24;;;;;;;6.30;6.10;;;27.30;44.40;;;;;;6293524;28;20232;-81
2023/06/18 14:29:30;;;;;;;5.97;5.77;;;27.30;44.60;;;;;;6254628;28;20237;-81
2023/06/18 14:32:33;;;;;;;6.10;5.80;;;27.50;44.50;;;;;;6277825;28;20321;-84
2023/06/18 14:35:38;;;;;;;6.80;6.47;;;27.80;45.00;;;;;;6267023;28;20295;-81
2023/06/18 14:38:43;;;;;;;6.17;5.93;;;27.90;44.90;;;;;;6274026;28;20253;-81
2023/06/18 14:41:48;;;;;;;5.67;5.43;;;28.00;44.30;;;;;;6271742;28;20273;-80
2023/06/18 14:44:51;;;;;;;6.00;5.77;;;27.70;44.40;;;;;;6267300;28;20742;-81
2023/06/18 14:47:54;;;;;;;6.80;6.40;;;27.60;44.80;;;;;;6252597;28;20233;-82
2023/06/18 14:50:57;;;;;;;7.20;6.90;;;27.60;44.90;;;;;;6274396;28;20229;-83
2023/06/18 14:54:11;;;;;;;6.80;6.27;;;27.50;45.20;;;;;;6265740;28;20615;-83
2023/06/18 14:57:15;;;;;;;6.57;6.17;;;27.60;45.70;;;;;;6266717;28;20234;-80
2023/06/18 15:00:19;;;;;;;6.40;6.00;;;27.70;45.20;;;;;;6281663;28;20244;-80
2023/06/18 15:03:22;;;;;;;5.47;5.27;;;27.80;45.20;;;;;;6276411;28;20622;-81
2023/06/18 15:06:25;;;;;;;6.37;5.90;;;28.00;45.20;;;;;;6274541;28;20236;-81
2023/06/18 15:09:28;;;;;;;5.73;5.43;;;28.00;44.90;;;;;;6273549;28;24870;-83
2023/06/18 15:12:33;;;;;;;5.70;5.50;;;28.10;45.40;;;;;;6275428;28;20260;-79
2023/06/18 15:15:36;;;;;;;6.43;5.83;;;28.10;44.70;;;;;;6269589;28;20246;-81
2023/06/18 15:18:39;;;;;;;6.00;5.60;;;28.10;44.10;;;;;;6265475;28;20351;-79
2023/06/18 15:21:42;;;;;;;5.67;5.37;;;28.10;44.20;;;;;;6273714;28;20252;-81
2023/06/18 15:24:45;;;;;;;5.70;5.40;;;27.90;44.80;;;;;;6265528;28;20238;-80
2023/06/18 15:27:50;;;;;;;5.60;5.13;;;28.00;44.20;;;;;;6265773;28;20929;-82
2023/06/18 15:30:53;;;;;;;6.20;6.00;;;28.00;44.00;;;;;;6274456;28;20241;-80
2023/06/18 15:33:57;;;;;;;6.67;6.17;;;27.90;44.00;;;;;;6256689;28;21388;-82
2023/06/18 15:37:00;;;;;;;6.13;5.83;;;27.90;44.20;;;;;;6254590;28;20780;-80
2023/06/18 15:40:03;;;;;;;5.90;5.70;;;27.80;44.10;;;;;;6258951;28;20323;-81
2023/06/18 15:43:08;;;;;;;6.00;5.80;;;27.80;44.40;;;;;;6268237;28;20320;-80
2023/06/18 15:46:11;;;;;;;6.43;6.03;;;27.70;44.80;;;;;;6268480;28;20236;-77
2023/06/18 15:49:16;;;;;;;6.60;6.10;;;27.70;44.50;;;;;;6275752;28;20794;-83
2023/06/18 15:52:19;;;;;;;6.60;6.33;;;27.70;45.10;;;;;;6276329;28;20373;-79
2023/06/18 15:55:22;;;;;;;7.50;7.10;;;27.70;44.90;;;;;;6274418;28;20355;-81
2023/06/18 15:58:27;;;;;;;7.13;6.80;;;27.60;45.00;;;;;;6269963;28;20244;-81